Terminal Aerodrome Forecast
Issued by NWS

Home | Current Version | Previous Version | Text Only | Print | Product List | Glossary On
Versions: 1 2 3 4 5 6 7 8 9 10 11 12 13 14 15 16 17 18 19 20 21 22 23 24 25 26 27 28 29 30 31 32 33
000
FTUS43 KDLH 011300 AAB
TAFBRD
TAF AMD
KBRD 011345Z 0114/0212 30010KT P6SM SCT012
      TEMPO 0114/0115 BKN012
     FM011800 30013G18KT P6SM SCT040
      TEMPO 0118/0121 BKN040
     FM020100 28004KT P6SM VCSH BKN050
     FM020500 22003KT P6SM SCT050=

USA.gov is the U.S. government's official web portal to all federal, state and local government web resources and services.